Hovedside
METAR-TAF:

METAR-TAF

Lufthavner :

Kirkenes, Norge

Kirkenes lufthavn

breddegrad: 69-44N, lengdegrad: 029-54E, høyde over havet: 9 m

Gjeldene værobservasjon

Denne rapporten ble laget for 39 minutter siden, klokken 11:20 UTC
Vind 10 kt fra Nord
Temperatur 2°C
Luftfuktighet 80%
Trykk 1023 hPa
Sikt 10 km eller mer
Få skyer i en høyde av 700 ft
Brutte skyer i en høyde av 1800 ft

METAR: ENKR 221120Z 35010KT 9999 FEW007 BKN018 02/M01 Q1023 RMK WIND 731FT 35009KT

Tid: 13:59 (11:59 UTC)

Varsel

Denne rapporten ble laget for 59 minutter siden, klokken 11:00 UTC
Varsel gyldig fra 22. klokken 12 UTC til 22. klokken 21 UTC
Vind 8 kt fra Nord
Sikt 10 km eller mer
Få skyer i en høyde av 1000 ft
Spredte skyer i en høyde av 2500 ft
Midlertidig
fra 22. klokken 12 UTC til 22. klokken 18 UTC
Sikt: 4000 m
Brutte skyer i en høyde av 1200 ft
regnbyger, snø

TAF: ENKR 221100Z 2212/2221 36008KT 9999 FEW010 SCT025 TEMPO 2212/2218 4000 SHRASN BKN012

Værobservasjoner og værvarsel for over 4000 flyplasser (METAR- og TAF-rapporter).

Tilgjengelige stasjoner er representert av de røde og gule prikkene på kartet.

Hold musepekeren over prikken for å se navnet på stasjonen.

Klikk så for å se værobservasjoner og -varsler.

For å forandre kartet kan du klikke på den grønne knappen med svart kryss for å zoome inn, på den grønne knappen med strek for å zoome ut, eller på de grønne pilene for å se tilstøtende kart.


METAR-TAF: